Terminal Aerodrome Forecast
Issued by NWS Charleston, WV

Current Version | Previous Version | Text Only | Print | Product List | Glossary Off
Versions: 1 2 3 4 5 6 7 8 9 10 11 12 13 14 15 16 17 18 19 20 21 22 23

000
FTUS41 KRLX 261700
TAFPKB
TAF
KPKB 261738Z 2618/2718 30008KT 3SM -SN BR SCT009 BKN013 OVC018
      TEMPO 2618/2620 2SM -SN OVC009
     FM262200 31005KT 1 1/2SM BR OVC008
     FM270500 31005KT 4SM BR OVC008
     FM270900 32005KT 6SM BR OVC008=

USA.gov is the U.S. government's official web portal to all federal, state and local government web resources and services.